Jewell Manor, New York
Current Conditions -  °F | °C
As of 4:54 PM on Thursday 18 Dec 2014 (Local Time) from KSYR Reporting Station
Light Snow Light Snow  
Wind Chill: 20°   Ceiling: 1700
Heat Index: 31°   Visibility: 10mi
Dew Point: 28°   Wind: 15mph
Humidity: 89%   Direction: 260°W
Pressure: 30.02"   Gusts: NA
Location:  43.1098°N, 76.1878°W
Report Text: KSYR 182154Z 26013KT 10SM -SN OVC017 M01/M02 A3002 RMK AO2 SNE00B52 SLP167 P0000 T10061022
Loading
Personal Weather Stations






























Interactive Weather Map New forecast layout! Learn more

10-Day Weather Forecast

Advertisements
Track Severe Weather on mobile